createdAt,value
2023-05-14T00:01:43.201Z,102023.53
2023-05-14T00:04:10.572Z,102019.81
2023-05-14T00:06:37.604Z,102020.41
2023-05-14T00:09:04.700Z,102026.44
2023-05-14T00:11:31.781Z,102015.41
2023-05-14T00:13:58.892Z,102021.00
2023-05-14T00:16:26.298Z,102017.78
2023-05-14T00:18:53.435Z,102019.09
2023-05-14T00:21:20.669Z,102020.38
2023-05-14T00:23:47.707Z,102003.66
2023-05-14T00:26:14.743Z,102008.50
2023-05-14T00:28:42.157Z,102009.91
2023-05-14T00:31:09.626Z,102006.97
2023-05-14T00:33:36.780Z,102001.44
2023-05-14T00:36:04.491Z,102006.03
2023-05-14T00:38:31.572Z,101990.38
2023-05-14T00:40:58.745Z,101993.06
2023-05-14T00:43:26.216Z,101986.16
2023-05-14T00:45:54.652Z,101989.91
2023-05-14T00:48:22.864Z,101985.81
2023-05-14T00:50:51.207Z,101984.84
2023-05-14T00:53:19.370Z,101995.66
2023-05-14T00:55:48.718Z,101998.34
2023-05-14T00:58:15.819Z,101995.13
2023-05-14T01:00:42.893Z,101990.38
2023-05-14T01:03:10.202Z,101989.91
2023-05-14T01:06:01.136Z,101989.47
2023-05-14T01:09:05.195Z,101985.19
2023-05-14T01:12:08.798Z,101984.41
2023-05-14T01:14:54.494Z,101991.78
2023-05-14T01:17:25.108Z,101975.66
2023-05-14T01:19:52.736Z,101976.72
2023-05-14T01:22:20.208Z,101974.34
2023-05-14T01:24:47.467Z,101984.69
2023-05-14T01:27:21.967Z,101974.13
2023-05-14T01:29:58.062Z,101975.22
2023-05-14T01:32:26.697Z,101981.53
2023-05-14T01:34:58.913Z,101983.72
2023-05-14T01:37:28.469Z,101974.59
2023-05-14T01:39:56.910Z,101973.78
2023-05-14T01:42:24.196Z,101978.72
2023-05-14T01:44:52.033Z,101971.78
2023-05-14T01:47:19.107Z,101987.19
2023-05-14T01:49:46.249Z,101986.75
2023-05-14T01:52:13.364Z,101979.69
2023-05-14T01:54:43.393Z,101973.31
2023-05-14T01:57:10.495Z,101975.53
2023-05-14T01:59:37.523Z,101980.41
2023-05-14T02:02:04.621Z,101976.94
2023-05-14T02:04:31.753Z,101981.78
2023-05-14T02:06:58.726Z,101978.16
2023-05-14T02:09:25.911Z,101978.03
2023-05-14T02:11:53.091Z,101978.84
2023-05-14T02:14:20.127Z,101982.94
2023-05-14T02:16:47.109Z,101983.03
2023-05-14T02:19:14.552Z,101984.22
2023-05-14T02:21:41.985Z,101976.94
2023-05-14T02:24:09.154Z,101980.75
2023-05-14T02:26:36.480Z,101978.13
2023-05-14T02:29:03.879Z,101978.13
2023-05-14T02:31:31.041Z,101977.38
2023-05-14T02:33:58.150Z,101965.94
2023-05-14T02:36:25.291Z,101965.31
2023-05-14T02:38:52.329Z,101976.09
2023-05-14T02:41:19.459Z,101976.47
2023-05-14T02:43:46.832Z,101976.22
2023-05-14T02:46:14.053Z,101962.69
2023-05-14T02:48:41.276Z,101961.59
2023-05-14T02:51:08.312Z,101961.59
2023-05-14T02:53:35.366Z,101961.59
2023-05-14T02:56:02.640Z,101962.72
2023-05-14T02:58:30.059Z,101964.06
2023-05-14T03:00:57.476Z,101969.84
2023-05-14T03:03:25.536Z,101962.56
2023-05-14T03:05:52.962Z,101962.00
2023-05-14T03:08:20.269Z,101956.84
2023-05-14T03:10:47.470Z,101969.06
2023-05-14T03:13:18.129Z,101966.13
2023-05-14T03:15:45.699Z,101954.47
2023-05-14T03:18:14.032Z,101954.78
2023-05-14T03:20:41.931Z,101964.56
2023-05-14T03:23:09.228Z,101955.41
2023-05-14T03:25:36.489Z,101956.47
2023-05-14T03:28:03.832Z,101949.97
2023-05-14T03:30:30.987Z,101953.28
2023-05-14T03:32:59.027Z,101958.41
2023-05-14T03:35:26.334Z,101956.06
2023-05-14T03:37:53.472Z,101951.19
2023-05-14T03:40:21.630Z,101958.41
2023-05-14T03:42:48.897Z,101954.97
2023-05-14T03:45:16.269Z,101956.53
2023-05-14T03:47:43.417Z,101951.72
2023-05-14T03:50:10.621Z,101950.66
2023-05-14T03:52:37.705Z,101942.56
2023-05-14T03:55:05.137Z,101953.34
2023-05-14T03:57:32.216Z,101953.09
2023-05-14T03:59:59.392Z,101947.94
2023-05-14T04:02:27.142Z,101938.47
2023-05-14T04:04:54.379Z,101949.50
2023-05-14T04:07:21.631Z,101941.88
2023-05-14T04:09:49.054Z,101946.97
2023-05-14T04:12:16.283Z,101942.38
2023-05-14T04:14:43.451Z,101944.78
2023-05-14T04:17:10.633Z,101944.44
2023-05-14T04:19:38.009Z,101946.84
2023-05-14T04:22:05.398Z,101945.41
2023-05-14T04:24:32.452Z,101946.22
2023-05-14T04:26:59.867Z,101946.50
2023-05-14T04:29:27.302Z,101952.31
2023-05-14T04:31:54.593Z,101945.25
2023-05-14T04:34:22.639Z,101950.31
2023-05-14T04:36:49.783Z,101950.84
2023-05-14T04:39:17.555Z,101950.03
2023-05-14T04:41:44.647Z,101950.31
2023-05-14T04:44:13.251Z,101945.69
2023-05-14T04:46:40.678Z,101953.13
2023-05-14T04:49:08.252Z,101951.72
2023-05-14T04:51:35.823Z,101950.81
2023-05-14T04:54:02.961Z,101953.66
2023-05-14T04:56:30.321Z,101951.38
2023-05-14T04:58:57.358Z,101957.13
2023-05-14T05:01:24.956Z,101957.41
2023-05-14T05:03:52.544Z,101952.50
2023-05-14T05:06:20.014Z,101953.53
2023-05-14T05:08:47.252Z,101958.59
2023-05-14T05:11:14.450Z,101954.34
2023-05-14T05:13:41.514Z,101960.22
2023-05-14T05:16:08.777Z,101952.31
2023-05-14T05:18:35.993Z,101947.44
2023-05-14T05:21:03.418Z,101942.56
2023-05-14T05:23:30.566Z,101947.22
2023-05-14T05:25:57.594Z,101949.88
2023-05-14T05:28:24.788Z,101949.19
2023-05-14T05:30:51.929Z,101947.91
2023-05-14T05:33:20.216Z,101950.31
2023-05-14T05:35:48.319Z,101950.94
2023-05-14T05:38:15.864Z,101954.16
2023-05-14T05:40:43.007Z,101954.09
2023-05-14T05:43:10.396Z,101949.78
2023-05-14T05:45:37.756Z,101952.00
2023-05-14T05:48:06.018Z,101949.09
2023-05-14T05:50:33.207Z,101948.28
2023-05-14T05:53:00.405Z,101949.78
2023-05-14T05:55:28.779Z,101946.66
2023-05-14T05:57:56.211Z,101948.28
2023-05-14T06:00:24.080Z,101947.03
2023-05-14T06:02:51.261Z,101940.13
2023-05-14T06:05:19.337Z,101941.06
2023-05-14T06:07:46.788Z,101939.13
2023-05-14T06:10:14.269Z,101938.03
2023-05-14T06:12:41.300Z,101944.88
2023-05-14T06:15:08.629Z,101942.38
2023-05-14T06:17:35.643Z,101947.66
2023-05-14T06:20:02.758Z,101942.97
2023-05-14T06:22:29.767Z,101940.91
2023-05-14T06:24:58.069Z,101939.66
2023-05-14T06:27:25.106Z,101926.22
2023-05-14T06:29:52.219Z,101939.31
2023-05-14T06:32:19.433Z,101937.47
2023-05-14T06:34:46.559Z,101934.75
2023-05-14T06:37:13.636Z,101929.19
2023-05-14T06:39:49.831Z,101931.94
2023-05-14T06:42:17.480Z,101927.22
2023-05-14T06:44:45.253Z,101929.53
2023-05-14T06:47:12.270Z,101927.78
2023-05-14T06:49:39.405Z,101933.59
2023-05-14T06:52:06.824Z,101936.47
2023-05-14T06:54:34.168Z,101932.19
2023-05-14T06:57:01.395Z,101927.84
2023-05-14T06:59:28.528Z,101925.00
2023-05-14T07:01:56.025Z,101922.75
2023-05-14T07:04:23.211Z,101922.44
2023-05-14T07:06:50.502Z,101912.66
2023-05-14T07:09:17.685Z,101924.22
2023-05-14T07:11:45.005Z,101920.06
2023-05-14T07:14:12.113Z,101905.44
2023-05-14T07:16:39.348Z,101901.41
2023-05-14T07:19:06.551Z,101909.06
2023-05-14T07:21:34.694Z,101905.28
2023-05-14T07:24:02.340Z,101891.94
2023-05-14T07:26:29.434Z,101891.41
2023-05-14T07:28:56.471Z,101897.94
2023-05-14T07:31:23.607Z,101893.66
2023-05-14T07:33:50.821Z,101888.13
2023-05-14T07:36:17.877Z,101880.03
2023-05-14T07:38:45.086Z,101879.03
2023-05-14T07:41:12.584Z,101872.66
2023-05-14T07:43:40.503Z,101870.56
2023-05-14T07:46:07.597Z,101865.38
2023-05-14T07:48:34.654Z,101870.19
2023-05-14T07:51:02.208Z,101868.06
2023-05-14T07:53:29.572Z,101860.34
2023-05-14T07:55:56.748Z,101865.50
2023-05-14T07:58:25.053Z,101861.16
2023-05-14T08:00:52.193Z,101859.16
2023-05-14T08:03:19.299Z,101861.19
2023-05-14T08:05:46.449Z,101842.03
2023-05-14T08:08:13.578Z,101853.31
2023-05-14T08:10:40.835Z,101851.69
2023-05-14T08:13:07.867Z,101839.63
2023-05-14T08:15:35.016Z,101838.34
2023-05-14T08:18:03.960Z,101842.06
2023-05-14T08:20:31.470Z,101840.59
2023-05-14T08:22:58.637Z,101837.47
2023-05-14T08:25:25.712Z,101839.66
2023-05-14T08:27:54.230Z,101837.78
2023-05-14T08:30:22.843Z,101840.06
2023-05-14T08:32:50.206Z,101835.81
2023-05-14T08:35:18.053Z,101834.16
2023-05-14T08:37:45.548Z,101831.72
2023-05-14T08:40:12.955Z,101829.75
2023-05-14T08:42:44.821Z,101825.16
2023-05-14T08:45:20.311Z,101822.72
2023-05-14T08:47:51.596Z,101815.19
2023-05-14T08:50:21.902Z,101824.44
2023-05-14T08:52:50.368Z,101820.06
2023-05-14T08:55:17.656Z,101820.22
2023-05-14T08:57:44.853Z,101811.09
2023-05-14T09:00:12.550Z,101811.47
2023-05-14T09:02:40.768Z,101811.66
2023-05-14T09:05:09.348Z,101813.50
2023-05-14T09:07:36.765Z,101812.31
2023-05-14T09:10:04.734Z,101809.34
2023-05-14T09:12:32.097Z,101803.50
2023-05-14T09:14:59.195Z,101802.81
2023-05-14T09:17:29.931Z,101793.44
2023-05-14T09:19:57.393Z,101791.94
2023-05-14T09:22:24.615Z,101792.44
2023-05-14T09:25:09.762Z,101799.31
2023-05-14T09:27:37.274Z,101797.13
2023-05-14T09:30:06.062Z,101793.25
2023-05-14T09:32:40.503Z,101784.50
2023-05-14T09:35:17.040Z,101789.59
2023-05-14T09:37:52.637Z,101778.97
2023-05-14T09:40:21.335Z,101784.69
2023-05-14T09:42:49.327Z,101788.47
2023-05-14T09:45:17.311Z,101770.34
2023-05-14T09:47:45.640Z,101772.97
2023-05-14T09:50:12.879Z,101780.75
2023-05-14T09:52:40.177Z,101770.34
2023-05-14T09:55:07.927Z,101761.50
2023-05-14T09:57:35.532Z,101769.47
2023-05-14T10:00:02.922Z,101760.59
2023-05-14T10:02:37.947Z,101764.44
2023-05-14T10:05:07.110Z,101766.81
2023-05-14T10:07:44.745Z,101763.69
2023-05-14T10:10:16.707Z,101758.22
2023-05-14T10:12:52.928Z,101752.13
2023-05-14T10:15:26.767Z,101754.44
2023-05-14T10:18:03.600Z,101762.91
2023-05-14T10:20:31.317Z,101756.31
2023-05-14T10:22:59.133Z,101755.91
2023-05-14T10:25:26.980Z,101754.72
2023-05-14T10:27:54.631Z,101752.50
2023-05-14T10:30:25.314Z,101736.03
2023-05-14T10:33:06.768Z,101752.25
2023-05-14T10:36:04.837Z,101737.72
2023-05-14T10:38:37.650Z,101735.59
2023-05-14T10:41:07.128Z,101734.19
2023-05-14T10:43:38.717Z,101733.75
2023-05-14T10:46:06.852Z,101734.66
2023-05-14T10:48:34.684Z,101728.38
2023-05-14T10:51:04.725Z,101730.41
2023-05-14T10:53:37.202Z,101717.78
2023-05-14T10:56:09.544Z,101724.50
2023-05-14T10:58:42.567Z,101718.97
2023-05-14T11:01:11.667Z,101729.59
2023-05-14T11:03:42.066Z,101716.56
2023-05-14T11:06:11.982Z,101711.84
2023-05-14T11:08:39.650Z,101709.47
2023-05-14T11:11:07.846Z,101717.97
2023-05-14T11:13:35.416Z,101714.84
2023-05-14T11:16:11.946Z,101711.13
2023-05-14T11:19:01.444Z,101701.38
2023-05-14T11:21:29.071Z,101682.78
2023-05-14T11:23:57.378Z,101687.69
2023-05-14T11:26:24.541Z,101639.16
2023-05-14T11:28:52.030Z,101688.41
2023-05-14T11:31:19.445Z,101643.09
2023-05-14T11:33:47.178Z,101675.13
2023-05-14T11:36:14.943Z,101669.97
2023-05-14T11:38:51.019Z,101689.28
2023-05-14T11:41:21.087Z,101673.75
2023-05-14T11:43:48.756Z,101674.66
2023-05-14T11:46:19.562Z,101666.00
2023-05-14T11:48:46.882Z,101674.69
2023-05-14T11:51:14.040Z,101666.00
2023-05-14T11:53:41.414Z,101662.84
2023-05-14T11:56:09.889Z,101663.56
2023-05-14T11:58:37.287Z,101676.25
2023-05-14T12:01:04.917Z,101670.56
2023-05-14T12:03:32.938Z,101634.66
2023-05-14T12:06:02.703Z,101625.28
2023-05-14T12:08:31.728Z,101654.03
2023-05-14T12:11:00.823Z,101645.25
2023-05-14T12:13:33.735Z,101667.84
2023-05-14T12:16:05.607Z,101644.03
2023-05-14T12:18:33.805Z,101661.13
2023-05-14T12:21:10.493Z,101658.19
2023-05-14T12:23:40.012Z,101657.38
2023-05-14T12:26:09.038Z,101662.69
2023-05-14T12:28:38.940Z,101623.38
2023-05-14T12:31:06.555Z,101649.94
2023-05-14T12:33:33.792Z,101626.97
2023-05-14T12:36:20.310Z,101619.25
2023-05-14T12:38:50.366Z,101638.03
2023-05-14T12:41:18.315Z,101630.34
2023-05-14T12:43:48.079Z,101634.53
2023-05-14T12:46:16.146Z,101639.84
2023-05-14T12:48:43.352Z,101601.19
2023-05-14T12:51:10.664Z,101633.47
2023-05-14T12:53:39.411Z,101625.78
2023-05-14T12:56:06.815Z,101612.41
2023-05-14T12:58:36.324Z,101603.00
2023-05-14T13:01:03.701Z,101596.38
2023-05-14T13:03:30.958Z,101601.69
2023-05-14T13:05:59.064Z,101595.56
2023-05-14T13:08:26.816Z,101565.94
2023-05-14T13:10:55.103Z,101590.03
2023-05-14T13:13:23.197Z,101592.78
2023-05-14T13:15:52.935Z,101590.41
2023-05-14T13:18:20.170Z,101568.31
2023-05-14T13:20:48.200Z,101579.06
2023-05-14T13:23:15.669Z,101562.06
2023-05-14T13:25:42.906Z,101570.34
2023-05-14T13:28:10.200Z,101577.09
2023-05-14T13:30:37.438Z,101542.00
2023-05-14T13:33:06.142Z,101545.53
2023-05-14T13:35:34.725Z,101564.03
2023-05-14T13:38:02.068Z,101529.66
2023-05-14T13:40:29.323Z,101519.78
2023-05-14T13:42:56.600Z,101556.31
2023-05-14T13:45:23.949Z,101538.19
2023-05-14T13:47:51.885Z,101543.28
2023-05-14T13:50:19.152Z,101551.84
2023-05-14T13:52:46.449Z,101552.47
2023-05-14T13:55:13.578Z,101501.03
2023-05-14T13:57:41.904Z,101550.41
2023-05-14T14:00:09.606Z,101510.53
2023-05-14T14:02:37.045Z,101521.88
2023-05-14T14:05:05.464Z,101527.63
2023-05-14T14:07:32.736Z,101514.34
2023-05-14T14:10:03.858Z,101523.34
2023-05-14T14:12:31.202Z,73387.22
2023-05-14T14:15:01.074Z,73387.22
2023-05-14T14:17:28.423Z,73387.22
2023-05-14T14:19:55.562Z,73387.22
2023-05-14T14:24:50.286Z,73387.22
2023-05-14T14:27:17.357Z,73387.22
2023-05-14T14:29:44.535Z,73387.22
2023-05-14T14:32:11.657Z,73387.22
2023-05-14T14:34:38.861Z,73387.22
2023-05-14T14:37:06.276Z,73387.22
2023-05-14T14:39:34.561Z,73387.22
2023-05-14T14:42:01.684Z,73387.22
2023-05-14T14:44:28.793Z,73387.22
2023-05-14T14:46:55.903Z,73387.22
2023-05-14T14:49:23.617Z,73387.22
2023-05-14T14:51:50.758Z,73387.22
2023-05-14T14:54:18.030Z,73387.22
2023-05-14T14:56:45.976Z,73387.22
2023-05-14T14:59:13.202Z,73387.22
2023-05-14T15:01:40.427Z,101523.34
2023-05-14T15:04:07.556Z,101480.81
2023-05-14T15:06:34.727Z,101497.78
2023-05-14T15:09:02.236Z,101487.06
2023-05-14T15:11:29.437Z,101504.47
2023-05-14T15:13:56.589Z,101502.88
2023-05-14T15:16:23.796Z,101512.72
2023-05-14T15:18:51.074Z,101469.94
2023-05-14T15:21:18.552Z,101501.84
2023-05-14T15:23:45.741Z,101484.06
2023-05-14T15:26:12.856Z,101478.88
2023-05-14T15:28:40.027Z,101464.31
2023-05-14T15:31:07.447Z,101442.44
2023-05-14T15:33:36.457Z,101470.59
2023-05-14T15:36:03.965Z,101493.09
2023-05-14T15:38:31.359Z,101480.91
2023-05-14T15:40:58.550Z,101488.09
2023-05-14T15:43:25.977Z,101494.53
2023-05-14T15:45:55.086Z,101453.03
2023-05-14T15:48:22.256Z,101477.06
2023-05-14T15:50:49.897Z,101472.38
2023-05-14T15:53:17.646Z,101493.69
2023-05-14T15:55:45.425Z,101480.19
2023-05-14T15:58:13.290Z,101476.78
2023-05-14T16:00:40.859Z,101463.25
2023-05-14T16:03:08.212Z,101457.94
2023-05-14T16:05:36.570Z,101427.78
2023-05-14T16:08:03.855Z,101465.69
2023-05-14T16:10:31.054Z,101473.13
2023-05-14T16:12:58.276Z,101476.88
2023-05-14T16:15:25.478Z,101470.16
2023-05-14T16:17:52.799Z,101476.59
2023-05-14T16:20:19.921Z,101432.25
2023-05-14T16:22:46.999Z,101409.09
2023-05-14T16:25:14.381Z,101453.88
2023-05-14T16:27:41.648Z,101453.22
2023-05-14T16:30:09.302Z,101468.28
2023-05-14T16:32:36.508Z,101461.50
2023-05-14T16:35:03.906Z,101438.31
2023-05-14T16:37:31.649Z,101464.91
2023-05-14T16:39:58.886Z,101460.69
2023-05-14T16:42:26.928Z,101452.69
2023-05-14T16:44:54.090Z,101456.81
2023-05-14T16:47:21.266Z,101411.75
2023-05-14T16:52:15.820Z,101438.81
2023-05-14T16:54:42.984Z,101427.78
2023-05-14T16:57:10.663Z,101391.19
2023-05-14T16:59:37.859Z,101392.84
2023-05-14T17:02:05.329Z,101420.50
2023-05-14T17:04:33.533Z,101435.31
2023-05-14T17:07:01.601Z,101400.63
2023-05-14T17:09:28.749Z,101425.59
2023-05-14T17:11:57.161Z,101409.31
2023-05-14T17:14:24.974Z,101411.28
2023-05-14T17:16:52.336Z,101419.91
2023-05-14T17:19:19.630Z,101409.22
2023-05-14T17:21:46.830Z,101428.91
2023-05-14T17:24:14.146Z,101416.56
2023-05-14T17:26:41.733Z,101419.63
2023-05-14T17:29:09.288Z,101421.09
2023-05-14T17:31:36.607Z,101429.75
2023-05-14T17:34:04.007Z,101414.56
2023-05-14T17:36:32.855Z,101420.84
2023-05-14T17:39:00.168Z,101417.63
2023-05-14T17:41:27.344Z,101387.34
2023-05-14T17:43:54.624Z,101407.69
2023-05-14T17:46:22.106Z,101408.38
2023-05-14T17:48:52.396Z,101403.63
2023-05-14T17:51:19.609Z,101433.78
2023-05-14T17:53:46.746Z,101426.22
2023-05-14T17:56:17.049Z,101430.88
2023-05-14T17:58:45.203Z,101396.97
2023-05-14T18:01:12.331Z,101434.06
2023-05-14T18:03:39.525Z,101405.94
2023-05-14T18:06:06.765Z,101422.31
2023-05-14T18:08:33.899Z,101376.84
2023-05-14T18:11:00.997Z,101439.75
2023-05-14T18:13:28.298Z,101439.88
2023-05-14T18:15:56.681Z,101435.72
2023-05-14T18:18:24.075Z,101437.91
2023-05-14T18:20:52.095Z,101445.72
2023-05-14T18:23:19.373Z,101442.16
2023-05-14T18:25:48.095Z,101430.81
2023-05-14T18:28:15.777Z,101453.00
2023-05-14T18:30:43.657Z,101438.84
2023-05-14T18:33:11.168Z,101424.47
2023-05-14T18:35:38.418Z,101423.66
2023-05-14T18:38:08.890Z,101447.16
2023-05-14T18:40:36.075Z,101440.81
2023-05-14T18:43:03.286Z,101458.41
2023-05-14T18:45:30.838Z,101453.16
2023-05-14T18:47:58.078Z,101464.09
2023-05-14T18:50:25.344Z,101462.69
2023-05-14T18:52:52.867Z,101457.31
2023-05-14T18:55:20.119Z,101460.19
2023-05-14T18:57:47.223Z,101465.34
2023-05-14T19:00:15.729Z,101460.28
2023-05-14T19:02:42.929Z,101453.84
2023-05-14T19:05:11.345Z,101449.94
2023-05-14T19:07:38.869Z,101466.03
2023-05-14T19:10:07.071Z,101409.91
2023-05-14T19:12:36.472Z,101444.75
2023-05-14T19:15:04.730Z,101473.59
2023-05-14T19:17:32.835Z,101475.44
2023-05-14T19:20:00.058Z,101467.44
2023-05-14T19:22:27.194Z,101475.56
2023-05-14T19:24:54.299Z,101466.56
2023-05-14T19:27:21.606Z,101475.47
2023-05-14T19:29:48.759Z,101470.69
2023-05-14T19:32:16.389Z,101470.06
2023-05-14T19:34:43.535Z,101450.72
2023-05-14T19:37:11.754Z,101461.75
2023-05-14T19:39:38.950Z,101458.03
2023-05-14T19:42:07.951Z,101470.97
2023-05-14T19:44:35.966Z,101454.38
2023-05-14T19:47:03.584Z,101453.38
2023-05-14T19:49:31.123Z,101465.31
2023-05-14T19:51:58.353Z,101450.53
2023-05-14T19:54:25.520Z,101453.31
2023-05-14T19:56:54.808Z,101458.94
2023-05-14T19:59:21.982Z,101463.25
2023-05-14T20:01:50.253Z,101452.75
2023-05-14T20:04:18.054Z,101462.44
2023-05-14T20:06:45.513Z,101448.00
2023-05-14T20:09:13.736Z,101464.84
2023-05-14T20:11:41.145Z,101465.97
2023-05-14T20:14:08.336Z,101444.09
2023-05-14T20:16:36.228Z,101441.16
2023-05-14T20:19:04.416Z,101436.81
2023-05-14T20:21:32.240Z,101412.66
2023-05-14T20:24:00.985Z,101412.47
2023-05-14T20:26:28.122Z,101440.56
2023-05-14T20:28:55.624Z,101420.84
2023-05-14T20:31:23.127Z,101425.44
2023-05-14T20:33:51.737Z,101439.63
2023-05-14T20:36:19.224Z,101416.25
2023-05-14T20:38:48.095Z,101424.56
2023-05-14T20:41:15.599Z,101436.94
2023-05-14T20:43:42.989Z,101432.94
2023-05-14T20:46:10.177Z,101427.16
2023-05-14T20:48:37.489Z,101427.78
2023-05-14T20:51:06.713Z,101398.47
2023-05-14T20:53:34.077Z,101420.31
2023-05-14T20:56:01.589Z,101416.41
2023-05-14T20:58:29.029Z,101419.38
2023-05-14T21:00:57.549Z,101411.19
2023-05-14T21:03:25.333Z,101414.94
2023-05-14T21:05:53.377Z,101416.38
2023-05-14T21:08:20.582Z,101411.50
2023-05-14T21:10:48.268Z,101418.78
2023-05-14T21:13:15.750Z,101388.28
2023-05-14T21:15:43.081Z,101406.88
2023-05-14T21:18:14.437Z,101398.69
2023-05-14T21:20:41.720Z,101377.97
2023-05-14T21:23:08.841Z,101400.25
2023-05-14T21:25:36.135Z,101389.00
2023-05-14T21:28:03.420Z,101396.56
2023-05-14T21:30:30.945Z,101395.09
2023-05-14T21:32:58.259Z,101395.97
2023-05-14T21:35:25.644Z,101387.06
2023-05-14T21:37:53.516Z,101382.91
2023-05-14T21:40:20.706Z,101394.56
2023-05-14T21:42:47.868Z,101388.50
2023-05-14T21:45:15.396Z,101379.97
2023-05-14T21:47:42.634Z,101377.66
2023-05-14T21:50:10.002Z,101382.53
2023-05-14T21:52:38.238Z,101370.19
2023-05-14T21:55:05.917Z,101374.44
2023-05-14T21:57:34.555Z,101384.03
2023-05-14T22:00:03.718Z,101377.41
2023-05-14T22:02:31.577Z,101382.59
2023-05-14T22:04:58.679Z,101375.03
2023-05-14T22:07:26.340Z,101345.38
2023-05-14T22:09:53.437Z,101357.97
2023-05-14T22:12:20.718Z,101364.03
2023-05-14T22:14:47.846Z,101365.97
2023-05-14T22:17:15.344Z,101358.59
2023-05-14T22:19:42.550Z,101355.06
2023-05-14T22:22:09.704Z,101350.59
2023-05-14T22:24:36.932Z,101345.63
2023-05-14T22:27:04.319Z,101350.16
2023-05-14T22:29:31.693Z,101349.59
2023-05-14T22:31:58.911Z,101333.50
2023-05-14T22:34:26.035Z,101345.84
2023-05-14T22:36:53.402Z,101312.16
2023-05-14T22:39:20.671Z,101349.50
2023-05-14T22:41:47.799Z,101357.50
2023-05-14T22:44:15.153Z,101335.09
2023-05-14T22:46:42.717Z,101332.22
2023-05-14T22:49:09.863Z,101326.16
2023-05-14T22:51:36.971Z,101330.28
2023-05-14T22:54:04.281Z,101333.41
2023-05-14T22:56:31.477Z,101326.50
2023-05-14T22:59:02.371Z,101326.06
2023-05-14T23:01:30.837Z,101304.16
2023-05-14T23:03:58.038Z,101323.16
2023-05-14T23:06:25.218Z,101310.94
2023-05-14T23:08:52.301Z,101303.44
2023-05-14T23:11:19.394Z,101293.03
2023-05-14T23:13:46.458Z,101274.78
2023-05-14T23:16:13.536Z,101306.50
2023-05-14T23:18:41.098Z,101288.72
2023-05-14T23:21:08.253Z,101286.13
2023-05-14T23:23:36.119Z,101287.09
2023-05-14T23:26:03.501Z,101286.94
2023-05-14T23:28:31.685Z,101278.63
2023-05-14T23:30:59.203Z,101282.78
2023-05-14T23:33:26.692Z,101266.47
2023-05-14T23:35:54.016Z,101269.66
2023-05-14T23:38:21.151Z,101266.31
2023-05-14T23:40:48.224Z,101256.88
2023-05-14T23:43:15.969Z,101250.66
2023-05-14T23:45:43.109Z,101257.22
2023-05-14T23:48:10.347Z,101266.50
2023-05-14T23:50:38.756Z,101264.00
2023-05-14T23:53:05.978Z,101258.91
2023-05-14T23:55:34.645Z,101251.28
2023-05-14T23:58:01.796Z,101261.47
